West York, Illinois
Current Conditions -  °F | °C
As of 9:15 AM on Monday 24 Nov 2014 (Local Time) from KRSV Reporting Station
Overcast Overcast  
Wind Chill: 29°   Ceiling: 2000
Heat Index: 39°   Visibility: 10mi
Dew Point: 35°   Wind: 23mph
Humidity: 84%   Direction: 250°WSW
Pressure: 29.57"   Gusts: 35mph
Location:  39.17°N, 87.67°W
Report Text: KRSV 241515Z AUTO 25020G30KT 10SM BKN020 BKN027 OVC032 04/02 A2957 RMK AO2 T00410016
Loading
Personal Weather Stations






























Interactive Weather Map New forecast layout! Learn more

10-Day Weather Forecast

Advertisements
Track Severe Weather on mobile